Time;durP1;ratioP1;P1;durP2;ratioP2;P2;SDS_P1;SDS_P2;PMS_P1;PMS_P2;Temp;Humidity;BMP_temperature;BMP_pressure;BME280_temperature;BME280_humidity;BME280_pressure;Samples;Min_cycle;Max_cycle;Signal;HPM_P1;HPM_P2
2023/04/14 00:00:32;;;;;;;5.18;3.17;;;;;;;3.68;85.33;100751.44;4969093;28;20085;-82
2023/04/14 00:02:57;;;;;;;13.45;5.13;;;;;;;3.71;85.10;100762.09;4975853;28;20450;-82
2023/04/14 00:05:26;;;;;;;5.47;3.08;;;;;;;3.68;85.79;100764.03;4995500;28;20034;-83
2023/04/14 00:07:52;;;;;;;8.10;3.00;;;;;;;3.63;85.82;100753.47;5008470;28;20560;-82
2023/04/14 00:10:17;;;;;;;6.97;2.92;;;;;;;3.62;86.11;100758.94;4984959;28;20034;-82
2023/04/14 00:12:42;;;;;;;5.82;2.83;;;;;;;3.59;85.68;100762.66;4991267;28;20038;-82
2023/04/14 00:15:09;;;;;;;6.20;2.97;;;;;;;3.46;86.41;100746.19;4971811;28;20043;-83
2023/04/14 00:17:34;;;;;;;10.65;3.15;;;;;;;3.48;85.91;100757.75;4988707;28;20037;-82
2023/04/14 00:20:00;;;;;;;6.68;3.28;;;;;;;3.46;86.54;100759.63;4992552;28;20466;-83
2023/04/14 00:22:25;;;;;;;8.25;3.25;;;;;;;3.47;87.21;100756.00;5009049;28;20034;-83
2023/04/14 00:24:51;;;;;;;8.30;3.05;;;;;;;3.45;87.01;100762.38;4977218;28;20050;-83
2023/04/14 00:27:16;;;;;;;11.40;3.53;;;;;;;3.46;87.26;100764.16;4980074;28;20427;-83
2023/04/14 00:29:41;;;;;;;11.50;3.70;;;;;;;3.37;87.77;100759.16;4988311;28;20042;-82
2023/04/14 00:32:08;;;;;;;4.80;2.75;;;;;;;3.29;87.44;100752.31;4989452;28;20040;-82
2023/04/14 00:34:34;;;;;;;6.80;3.03;;;;;;;3.35;87.11;100771.78;4998563;28;20036;-82
2023/04/14 00:36:59;;;;;;;8.02;2.78;;;;;;;3.30;86.81;100761.25;4959113;28;20031;-82
2023/04/14 00:39:25;;;;;;;6.80;2.85;;;;;;;3.29;86.42;100762.19;4990526;28;20042;-83
2023/04/14 00:41:50;;;;;;;9.23;3.47;;;;;;;3.31;86.80;100768.34;4986031;28;20022;-82
2023/04/14 00:44:15;;;;;;;5.20;2.80;;;;;;;3.24;86.72;100761.50;4968786;28;20068;-83
2023/04/14 00:46:41;;;;;;;10.35;3.60;;;;;;;3.17;86.28;100757.34;4971355;28;20081;-83
2023/04/14 00:49:07;;;;;;;6.82;3.30;;;;;;;3.12;86.52;100765.59;4976541;28;20038;-83
2023/04/14 00:51:33;;;;;;;8.27;2.83;;;;;;;3.08;86.80;100755.94;4988278;28;20125;-83
2023/04/14 00:54:04;;;;;;;5.43;3.13;;;;;;;3.07;87.99;100756.84;4952043;28;20203;-82
2023/04/14 00:56:30;;;;;;;8.20;2.88;;;;;;;3.07;87.46;100764.91;4991466;28;20054;-83
2023/04/14 00:58:58;;;;;;;8.45;2.85;;;;;;;3.03;87.31;100768.66;5008873;28;20057;-83
2023/04/14 01:01:24;;;;;;;10.15;4.18;;;;;;;3.03;87.61;100774.03;5006846;28;20045;-83
2023/04/14 01:03:51;;;;;;;10.82;2.92;;;;;;;2.95;87.21;100774.41;4972790;28;20036;-82
2023/04/14 01:06:16;;;;;;;3.90;3.13;;;;;;;2.88;87.72;100777.38;4985265;28;20043;-83
2023/04/14 01:08:42;;;;;;;8.35;3.60;;;;;;;2.81;88.32;100782.16;4985417;28;20042;-83
2023/04/14 01:11:22;;;;;;;14.65;4.40;;;;;;;2.71;88.58;100783.47;4970770;28;20455;-83
2023/04/14 01:14:01;;;;;;;9.15;3.20;;;;;;;2.65;89.21;100784.56;5007687;28;20487;-83
2023/04/14 01:16:32;;;;;;;7.78;3.20;;;;;;;2.63;89.11;100781.09;4989618;28;20049;-83
2023/04/14 01:19:28;;;;;;;6.22;2.60;;;;;;;2.69;88.21;100791.56;4985720;28;20034;-83
2023/04/14 01:21:59;;;;;;;7.60;3.10;;;;;;;2.70;88.54;100795.13;4952768;28;20537;-83
2023/04/14 01:24:55;;;;;;;6.15;2.95;;;;;;;2.70;88.56;100789.75;4969229;28;20491;-83
2023/04/14 01:27:44;;;;;;;6.10;2.97;;;;;;;2.68;88.59;100789.84;4984210;28;20392;-83
2023/04/14 01:30:37;;;;;;;11.70;3.83;;;;;;;2.68;89.60;100787.16;4990806;28;20038;-83
2023/04/14 01:33:06;;;;;;;8.90;3.10;;;;;;;2.59;89.24;100779.47;4956576;28;20127;-83
2023/04/14 01:35:43;;;;;;;11.27;3.65;;;;;;;2.63;89.41;100786.47;5002170;28;20034;-83
2023/04/14 01:38:13;;;;;;;6.93;3.28;;;;;;;2.60;89.22;100793.75;5009027;28;20133;-82
2023/04/14 01:40:45;;;;;;;7.68;3.53;;;;;;;2.53;89.67;100777.03;4991552;28;20057;-83
2023/04/14 01:43:13;;;;;;;6.65;2.95;;;;;;;2.49;89.28;100788.84;4989124;28;20038;-83
2023/04/14 01:45:50;;;;;;;8.00;3.42;;;;;;;2.43;88.56;100789.97;4970590;28;20057;-82
2023/04/14 01:48:16;;;;;;;4.32;2.67;;;;;;;2.44;89.05;100805.13;4975462;28;20030;-82
2023/04/14 01:50:43;;;;;;;6.90;3.30;;;;;;;2.42;88.82;100793.56;4971839;28;20173;-83
2023/04/14 01:53:11;;;;;;;9.82;3.53;;;;;;;2.42;88.99;100790.00;4988293;28;20418;-83
2023/04/14 01:55:39;;;;;;;8.80;3.67;;;;;;;2.46;89.17;100800.56;4971565;28;20065;-83
2023/04/14 01:58:06;;;;;;;7.63;3.63;;;;;;;2.45;89.52;100792.56;4987204;28;20030;-83
2023/04/14 02:00:34;;;;;;;5.90;3.15;;;;;;;2.46;89.65;100797.88;4970411;28;20026;-83
2023/04/14 02:03:02;;;;;;;10.23;3.50;;;;;;;2.42;90.01;100793.56;4999687;28;20041;-83
2023/04/14 02:05:33;;;;;;;9.98;4.05;;;;;;;2.44;89.70;100798.88;4978250;28;20225;-83
2023/04/14 02:07:59;;;;;;;7.25;3.35;;;;;;;2.38;89.46;100788.38;4987824;28;20245;-83
2023/04/14 02:10:26;;;;;;;7.82;3.20;;;;;;;2.41;89.58;100804.38;4987590;28;20117;-83
2023/04/14 02:12:55;;;;;;;8.73;3.30;;;;;;;2.41;89.26;100804.38;4988043;28;20038;-83
2023/04/14 02:15:22;;;;;;;11.23;3.58;;;;;;;2.35;89.71;100804.63;4989977;28;20045;-82
2023/04/14 02:17:50;;;;;;;8.10;3.65;;;;;;;2.27;89.93;100804.91;4978669;28;20455;-83
2023/04/14 02:20:19;;;;;;;8.25;3.22;;;;;;;2.24;89.91;100807.72;4987320;28;20046;-83
2023/04/14 02:22:46;;;;;;;7.05;3.42;;;;;;;2.21;90.05;100807.84;4987323;28;20430;-83
2023/04/14 02:25:11;;;;;;;7.63;3.45;;;;;;;2.17;90.04;100804.38;4987582;28;20032;-83
2023/04/14 02:27:45;;;;;;;11.13;3.30;;;;;;;2.17;89.45;100807.06;4987320;28;20042;-83
2023/04/14 02:30:15;;;;;;;11.35;3.35;;;;;;;2.12;89.41;100802.81;4983645;28;20030;-83
2023/04/14 02:32:45;;;;;;;;;;;;;;;2.19;87.95;100813.28;5003532;28;20569;-82
2023/04/14 02:35:25;;;;;;;6.22;2.65;;;;;;;2.10;89.03;100807.34;4997683;28;19925;-82
2023/04/14 02:37:55;;;;;;;12.02;4.85;;;;;;;2.12;91.07;100816.25;4987546;28;20093;-83
2023/04/14 02:40:30;;;;;;;7.05;3.85;;;;;;;2.09;89.74;100819.03;4988248;28;20586;-83
2023/04/14 02:43:00;;;;;;;7.88;3.85;;;;;;;2.02;89.94;100824.63;4987033;28;20034;-83
2023/04/14 02:45:31;;;;;;;9.65;3.92;;;;;;;1.98;90.79;100833.72;4986387;28;20126;-83
2023/04/14 02:48:01;;;;;;;8.98;4.07;;;;;;;1.94;91.43;100824.03;5005098;28;20665;-83
2023/04/14 02:50:31;;;;;;;5.95;3.50;;;;;;;1.91;91.15;100825.94;4989369;28;20065;-83
2023/04/14 02:53:05;;;;;;;6.88;3.53;;;;;;;1.95;90.23;100828.47;5007373;28;20045;-83
2023/04/14 02:55:36;;;;;;;8.25;3.72;;;;;;;1.95;90.46;100830.28;5006805;28;20133;-82
2023/04/14 02:58:02;;;;;;;6.78;3.50;;;;;;;1.97;91.25;100829.31;4973665;28;20126;-83
2023/04/14 03:00:31;;;;;;;10.73;3.55;;;;;;;1.96;91.06;100829.38;4986862;28;20381;-83
2023/04/14 03:02:59;;;;;;;13.75;3.67;;;;;;;1.97;91.18;100836.47;4978067;28;20030;-83
2023/04/14 03:05:25;;;;;;;8.52;3.38;;;;;;;1.96;91.37;100826.69;4998524;28;20034;-83
2023/04/14 03:08:03;;;;;;;8.45;3.55;;;;;;;1.90;91.20;100835.81;4987741;28;20474;-83
2023/04/14 03:10:29;;;;;;;8.13;3.55;;;;;;;1.79;90.97;100825.50;4980829;28;20031;-83
2023/04/14 03:12:57;;;;;;;8.13;3.25;;;;;;;1.82;90.22;100831.66;4986226;28;20034;-83
2023/04/14 03:15:24;;;;;;;5.00;2.92;;;;;;;1.80;90.44;100834.41;4989547;28;20037;-83
2023/04/14 03:17:54;;;;;;;8.15;3.72;;;;;;;1.77;90.54;100822.00;4973608;28;20379;-83
2023/04/14 03:20:22;;;;;;;6.15;3.30;;;;;;;1.75;90.68;100831.88;4991828;28;20528;-83
2023/04/14 03:23:00;;;;;;;6.68;2.92;;;;;;;1.70;91.01;100841.91;4972857;28;20030;-83
2023/04/14 03:25:27;;;;;;;5.60;3.00;;;;;;;1.64;91.64;100839.47;4970892;28;20043;-83
2023/04/14 03:28:00;;;;;;;13.15;3.95;;;;;;;1.59;92.40;100835.19;4983022;28;20125;-83
2023/04/14 03:30:33;;;;;;;9.77;3.83;;;;;;;1.59;92.74;100843.25;4980493;28;20375;-83
2023/04/14 03:33:07;;;;;;;12.60;4.18;;;;;;;1.59;93.47;100836.06;4967910;28;20600;-84
2023/04/14 03:35:36;;;;;;;9.43;3.90;;;;;;;1.65;92.94;100838.53;4971628;28;20042;-83
2023/04/14 03:38:07;;;;;;;13.70;3.90;;;;;;;1.62;92.72;100835.94;4971115;28;20471;-83
2023/04/14 03:40:37;;;;;;;10.63;3.60;;;;;;;1.69;93.50;100839.28;4970673;28;20035;-83
2023/04/14 03:43:06;;;;;;;7.63;3.42;;;;;;;1.65;94.19;100843.88;4970465;28;20057;-83
2023/04/14 03:45:32;;;;;;;7.97;3.83;;;;;;;1.68;94.28;100835.75;4988740;28;20041;-83
2023/04/14 03:48:02;;;;;;;7.78;3.33;;;;;;;1.67;94.04;100842.00;4973588;28;20038;-83
2023/04/14 03:50:41;;;;;;;8.57;3.28;;;;;;;1.69;94.36;100848.22;4973937;28;20035;-82
2023/04/14 03:53:11;;;;;;;6.53;3.35;;;;;;;1.68;92.92;100841.09;4990812;28;20439;-83
2023/04/14 03:55:39;;;;;;;8.80;3.08;;;;;;;1.67;93.54;100833.97;4974028;28;20054;-83
2023/04/14 03:58:07;;;;;;;5.93;3.88;;;;;;;1.64;93.19;100834.09;4989965;28;20081;-83
2023/04/14 04:00:33;;;;;;;11.75;3.70;;;;;;;1.66;93.75;100844.75;4972650;28;20473;-83
2023/04/14 04:03:00;;;;;;;7.45;3.45;;;;;;;1.65;93.34;100838.53;4989405;28;20879;-83
2023/04/14 04:05:26;;;;;;;7.70;4.22;;;;;;;1.63;93.76;100839.50;4973658;28;20038;-83
2023/04/14 04:07:52;;;;;;;17.85;4.35;;;;;;;1.64;94.09;100847.50;4991215;28;20049;-83
2023/04/14 04:10:20;;;;;;;8.02;3.97;;;;;;;1.61;93.56;100855.66;4989092;28;20481;-83
2023/04/14 04:12:47;;;;;;;9.07;3.90;;;;;;;1.57;94.13;100845.09;4988658;28;20041;-82
2023/04/14 04:15:15;;;;;;;8.23;3.63;;;;;;;1.55;93.62;100842.47;4988746;28;20496;-83
2023/04/14 04:17:42;;;;;;;8.63;4.28;;;;;;;1.62;94.39;100848.47;4972610;28;20050;-83
2023/04/14 04:20:13;;;;;;;10.63;4.40;;;;;;;1.61;94.15;100849.41;4981842;28;20037;-82
2023/04/14 04:22:42;;;;;;;8.77;4.13;;;;;;;1.63;93.90;100853.81;5009178;28;20139;-83
2023/04/14 04:25:10;;;;;;;6.25;3.42;;;;;;;1.62;93.72;100845.78;4991709;28;20498;-83
2023/04/14 04:27:37;;;;;;;10.75;3.88;;;;;;;1.61;93.45;100847.59;4973587;28;20034;-83
2023/04/14 04:30:12;;;;;;;16.15;4.65;;;;;;;1.63;94.43;100851.13;4988756;28;20431;-83
2023/04/14 04:32:38;;;;;;;8.48;4.53;;;;;;;1.59;94.91;100854.84;4988803;28;20501;-83
2023/04/14 04:35:06;;;;;;;7.70;3.90;;;;;;;1.53;95.01;100869.31;4996579;28;20470;-83
2023/04/14 04:37:32;;;;;;;11.45;3.88;;;;;;;1.45;95.36;100863.38;4992693;28;20061;-83
2023/04/14 04:39:58;;;;;;;12.32;3.90;;;;;;;1.43;95.54;100867.88;5008622;28;20033;-82
2023/04/14 04:42:24;;;;;;;8.20;4.18;;;;;;;1.45;95.44;100865.16;4997217;28;20034;-83
2023/04/14 04:44:51;;;;;;;8.43;4.22;;;;;;;1.46;96.25;100867.78;4987813;28;20402;-83
2023/04/14 04:47:16;;;;;;;7.10;4.00;;;;;;;1.48;96.30;100865.91;4971923;28;20025;-83
2023/04/14 04:49:42;;;;;;;12.70;4.80;;;;;;;1.53;96.44;100869.31;4976841;28;20037;-83
2023/04/14 04:52:11;;;;;;;9.32;4.22;;;;;;;1.53;96.67;100857.72;5008513;28;20409;-83
2023/04/14 04:54:37;;;;;;;13.15;5.30;;;;;;;1.58;96.69;100858.41;4988814;28;20025;-83
2023/04/14 04:57:02;;;;;;;10.77;4.57;;;;;;;1.64;96.39;100850.19;4971930;28;20050;-82
2023/04/14 04:59:27;;;;;;;14.48;4.88;;;;;;;1.68;96.12;100848.25;4988939;28;20045;-83
2023/04/14 05:01:53;;;;;;;12.48;4.68;;;;;;;1.75;96.25;100849.78;4973418;28;20034;-83
2023/04/14 05:04:18;;;;;;;6.13;3.53;;;;;;;1.80;95.85;100853.19;5005415;28;20034;-83
2023/04/14 05:06:44;;;;;;;8.73;3.67;;;;;;;1.86;95.14;100858.31;4987564;28;20038;-82
2023/04/14 05:09:09;;;;;;;10.88;4.03;;;;;;;1.89;94.89;100854.66;4975423;28;20039;-83
2023/04/14 05:11:35;;;;;;;9.40;4.13;;;;;;;1.97;94.73;100858.81;4972003;28;20033;-83
2023/04/14 05:14:01;;;;;;;8.07;3.92;;;;;;;2.09;94.53;100856.59;4987999;28;20092;-83
2023/04/14 05:16:27;;;;;;;9.07;4.40;;;;;;;2.22;94.74;100860.56;4986831;28;20033;-82
2023/04/14 05:18:53;;;;;;;8.45;4.10;;;;;;;2.35;94.86;100859.19;4973091;28;20043;-83
2023/04/14 05:21:18;;;;;;;13.13;4.28;;;;;;;2.50;94.42;100857.72;4990906;28;20029;-83
2023/04/14 05:23:44;;;;;;;11.75;4.57;;;;;;;2.57;94.39;100850.31;4987292;28;20045;-83
2023/04/14 05:26:14;;;;;;;12.30;4.35;;;;;;;2.83;93.99;100843.88;4968725;28;20050;-83
2023/04/14 05:28:40;;;;;;;6.95;3.90;;;;;;;3.00;92.87;100853.00;4969503;28;20035;-82
2023/04/14 05:31:06;;;;;;;9.05;4.43;;;;;;;2.97;92.97;100846.88;4976020;28;20125;-82
2023/04/14 05:33:31;;;;;;;7.82;3.78;;;;;;;3.04;93.01;100840.31;4985193;28;20495;-83
2023/04/14 05:35:57;;;;;;;13.23;3.95;;;;;;;3.33;92.18;100850.72;5003802;28;20036;-83
2023/04/14 05:38:22;;;;;;;9.27;3.83;;;;;;;3.63;90.73;100849.44;4991492;28;20132;-83
2023/04/14 05:40:48;;;;;;;8.80;3.97;;;;;;;3.79;89.32;100855.91;4993760;28;20027;-82
2023/04/14 05:43:14;;;;;;;5.43;3.65;;;;;;;4.06;88.68;100861.88;4988642;28;20034;-82
2023/04/14 05:45:40;;;;;;;5.85;3.15;;;;;;;4.22;88.68;100862.91;4970302;28;20055;-83
2023/04/14 05:48:05;;;;;;;13.10;4.25;;;;;;;4.20;88.05;100855.88;4986518;28;20154;-83
2023/04/14 05:50:32;;;;;;;16.27;4.93;;;;;;;4.39;89.15;100856.78;4980410;28;20113;-83
2023/04/14 05:52:58;;;;;;;7.85;3.70;;;;;;;4.60;89.35;100850.34;4968042;28;20050;-82
2023/04/14 05:55:23;;;;;;;12.65;4.32;;;;;;;4.73;89.11;100844.38;4951708;28;20113;-83
2023/04/14 05:57:49;;;;;;;8.23;3.72;;;;;;;4.71;88.68;100848.97;4995447;28;20149;-82
2023/04/14 06:00:14;;;;;;;9.90;4.40;;;;;;;4.70;89.13;100840.00;4992883;28;20097;-83
2023/04/14 06:02:41;;;;;;;7.78;3.92;;;;;;;4.80;88.74;100846.72;4993141;28;20336;-84
2023/04/14 06:05:07;;;;;;;10.52;3.92;;;;;;;4.94;89.14;100854.09;4998929;28;20099;-83
2023/04/14 06:07:33;;;;;;;11.68;3.95;;;;;;;5.22;88.64;100864.44;4970476;28;20069;-83
2023/04/14 06:09:58;;;;;;;21.10;5.50;;;;;;;5.60;86.12;100848.97;4969772;28;20483;-83
2023/04/14 06:12:24;;;;;;;8.82;3.42;;;;;;;5.81;85.07;100852.38;4986212;28;20049;-83
2023/04/14 06:14:49;;;;;;;13.50;3.97;;;;;;;6.01;84.22;100845.06;4986386;28;20042;-83
2023/04/14 06:17:15;;;;;;;13.38;3.90;;;;;;;6.16;83.54;100860.47;4985854;28;20034;-83
2023/04/14 06:19:40;;;;;;;14.68;4.20;;;;;;;6.21;82.99;100858.38;4986973;28;20038;-83
2023/04/14 06:22:07;;;;;;;10.50;4.00;;;;;;;6.41;82.62;100859.13;4987059;28;20026;-83
2023/04/14 06:24:33;;;;;;;12.35;3.78;;;;;;;6.40;82.31;100850.16;5000885;28;20072;-83
2023/04/14 06:26:59;;;;;;;10.80;3.55;;;;;;;6.31;83.59;100853.34;4991825;28;20551;-83
2023/04/14 06:29:25;;;;;;;12.48;3.70;;;;;;;6.27;84.94;100849.06;4986156;28;20639;-83
2023/04/14 06:31:50;;;;;;;10.48;3.95;;;;;;;6.31;85.50;100847.94;4986634;28;20334;-83
2023/04/14 06:34:16;;;;;;;6.43;3.88;;;;;;;6.48;84.39;100834.38;4970968;28;20095;-83
2023/04/14 06:36:42;;;;;;;10.90;3.47;;;;;;;6.87;82.26;100839.38;4992900;28;20458;-83
2023/04/14 06:39:07;;;;;;;8.45;3.42;;;;;;;7.87;80.35;100837.03;4991622;28;20034;-83
2023/04/14 06:41:33;;;;;;;7.00;3.45;;;;;;;9.36;75.63;100832.88;4991325;28;20033;-84
2023/04/14 06:44:02;;;;;;;10.65;3.78;;;;;;;9.75;72.71;100836.59;4975053;28;20041;-83
2023/04/14 06:46:27;;;;;;;6.43;3.20;;;;;;;10.10;72.04;100832.25;4990730;28;20365;-84
2023/04/14 06:48:53;;;;;;;9.25;3.40;;;;;;;10.66;67.91;100832.78;4990924;28;20070;-83
2023/04/14 06:51:18;;;;;;;9.18;3.35;;;;;;;10.44;67.05;100825.34;4991568;28;20108;-83
2023/04/14 06:53:44;;;;;;;8.98;3.90;;;;;;;10.36;69.62;100821.41;4990816;28;20080;-83
2023/04/14 06:56:09;;;;;;;5.82;3.03;;;;;;;10.71;68.70;100811.53;4989641;28;20061;-83
2023/04/14 06:58:35;;;;;;;6.47;3.30;;;;;;;10.99;68.55;100823.97;5000771;28;20038;-83
2023/04/14 07:01:02;;;;;;;6.40;3.10;;;;;;;10.97;67.66;100823.22;5008986;28;20509;-84
2023/04/14 07:03:31;;;;;;;12.20;3.25;;;;;;;10.89;67.41;100824.78;4978706;28;20014;-83
2023/04/14 07:06:10;;;;;;;6.82;2.50;;;;;;;10.73;68.59;100820.47;4992537;28;20037;-84
2023/04/14 07:08:37;;;;;;;8.45;3.30;;;;;;;10.45;68.22;100820.75;4998436;28;20042;-84
2023/04/14 07:11:07;;;;;;;5.47;2.47;;;;;;;10.38;69.60;100817.59;5010136;28;20026;-83
2023/04/14 07:13:33;;;;;;;7.38;3.45;;;;;;;10.80;68.16;100809.13;4955963;28;20373;-84
2023/04/14 07:15:59;;;;;;;8.85;3.50;;;;;;;11.01;67.03;100813.00;4975578;28;20117;-83
2023/04/14 07:18:25;;;;;;;10.65;3.65;;;;;;;11.11;67.38;100819.47;4991471;28;20042;-83
2023/04/14 07:20:53;;;;;;;9.60;3.60;;;;;;;10.77;67.11;100812.06;4987023;28;20036;-83
2023/04/14 07:23:19;;;;;;;7.82;3.08;;;;;;;10.25;69.36;100814.00;5009878;28;20049;-83
2023/04/14 07:25:57;;;;;;;11.85;4.00;;;;;;;9.83;70.20;100807.00;5004057;28;20038;-84
2023/04/14 07:28:24;;;;;;;8.13;3.38;;;;;;;9.87;70.38;100803.13;4973933;28;20125;-84
2023/04/14 07:30:51;;;;;;;10.00;3.65;;;;;;;10.02;70.83;100807.47;4988982;28;20037;-83
2023/04/14 07:33:21;;;;;;;5.82;3.60;;;;;;;10.34;71.59;100807.91;5002096;28;20038;-83
2023/04/14 07:35:52;;;;;;;8.70;3.92;;;;;;;10.80;68.71;100807.28;5009290;28;20045;-82
2023/04/14 07:38:18;;;;;;;15.88;3.58;;;;;;;11.12;67.68;100799.44;5011252;28;20041;-83
2023/04/14 07:40:43;;;;;;;9.38;3.13;;;;;;;11.58;67.18;100801.34;5008549;28;20084;-83
2023/04/14 07:43:09;;;;;;;11.77;3.65;;;;;;;11.59;64.29;100794.91;5008349;28;20061;-83
2023/04/14 07:45:35;;;;;;;7.57;2.88;;;;;;;11.50;63.53;100795.63;5009377;28;20206;-83
2023/04/14 07:48:01;;;;;;;7.68;2.90;;;;;;;11.50;64.61;100788.31;5008175;28;20397;-83
2023/04/14 07:50:26;;;;;;;8.55;3.53;;;;;;;11.55;65.75;100785.25;4998661;28;20125;-82
2023/04/14 07:52:51;;;;;;;8.05;2.80;;;;;;;11.50;64.12;100782.00;4973630;28;20188;-83
2023/04/14 07:55:17;;;;;;;9.15;2.83;;;;;;;11.41;63.55;100783.59;4973147;28;21825;-83
2023/04/14 07:57:44;;;;;;;4.28;2.53;;;;;;;11.35;63.81;100781.34;4989393;28;20046;-82
2023/04/14 08:00:10;;;;;;;7.28;3.17;;;;;;;11.36;64.93;100787.66;4990451;28;20113;-83
2023/04/14 08:02:39;;;;;;;5.45;3.00;;;;;;;11.43;64.01;100789.78;5004728;28;20054;-82
2023/04/14 08:05:05;;;;;;;6.20;2.40;;;;;;;11.45;64.99;100785.09;4989805;28;20068;-82
2023/04/14 08:07:30;;;;;;;5.95;2.50;;;;;;;11.47;62.67;100790.41;4990022;28;20452;-82
2023/04/14 08:09:56;;;;;;;4.97;2.20;;;;;;;11.46;62.49;100785.94;4989295;28;20030;-82
2023/04/14 08:12:23;;;;;;;5.70;2.15;;;;;;;11.50;63.31;100795.63;4989872;28;20026;-83
2023/04/14 08:14:48;;;;;;;5.43;2.03;;;;;;;11.75;63.89;100797.34;4989049;28;20180;-83
2023/04/14 08:17:13;;;;;;;4.03;2.42;;;;;;;11.95;63.97;100791.22;4976297;28;20034;-83
2023/04/14 08:19:39;;;;;;;4.57;2.20;;;;;;;11.99;60.05;100776.34;5004994;28;20064;-81
2023/04/14 08:22:04;;;;;;;5.80;2.30;;;;;;;11.99;60.24;100783.66;5006257;28;20434;-82
2023/04/14 08:24:30;;;;;;;4.45;2.90;;;;;;;11.92;61.68;100791.44;4972942;28;20041;-82
2023/04/14 08:26:56;;;;;;;4.57;1.85;;;;;;;11.96;62.88;100790.22;4993875;28;20036;-83
2023/04/14 08:29:21;;;;;;;6.18;1.90;;;;;;;11.99;59.58;100787.25;5009423;28;20037;-82
2023/04/14 08:31:47;;;;;;;6.35;2.10;;;;;;;12.07;62.18;100785.75;4990117;28;20028;-82
2023/04/14 08:34:13;;;;;;;7.47;1.92;;;;;;;12.23;58.76;100778.97;4988847;28;20026;-83
2023/04/14 08:36:39;;;;;;;7.78;2.10;;;;;;;12.40;59.18;100790.34;5010211;28;20032;-82
2023/04/14 08:39:04;;;;;;;5.55;2.00;;;;;;;12.58;60.73;100782.53;5004664;28;20081;-83
2023/04/14 08:41:33;;;;;;;2.30;1.63;;;;;;;12.94;59.14;100786.81;5000651;28;20062;-83
2023/04/14 08:43:59;;;;;;;3.30;1.52;;;;;;;13.25;57.52;100790.63;4972381;28;20352;-83
2023/04/14 08:46:26;;;;;;;5.57;1.75;;;;;;;13.22;56.07;100782.69;4971565;28;20455;-82
2023/04/14 08:49:01;;;;;;;3.90;2.00;;;;;;;13.27;57.77;100774.94;4988519;28;20065;-82
2023/04/14 08:51:34;;;;;;;14.88;1.75;;;;;;;13.22;54.72;100789.00;5007085;28;20139;-82
2023/04/14 08:54:02;;;;;;;2.15;1.45;;;;;;;13.23;57.53;100781.66;5008661;28;20069;-83
2023/04/14 08:56:32;;;;;;;3.47;1.48;;;;;;;13.40;58.20;100777.53;5003176;28;20378;-82
2023/04/14 08:58:59;;;;;;;5.30;1.48;;;;;;;13.49;53.75;100787.66;4971377;28;20117;-82
2023/04/14 09:01:27;;;;;;;5.18;1.55;;;;;;;13.46;52.85;100782.44;4987662;28;20073;-82
2023/04/14 09:03:53;;;;;;;6.50;1.77;;;;;;;13.47;53.39;100785.03;4989614;28;20042;-82
2023/04/14 09:06:20;;;;;;;6.97;1.85;;;;;;;13.55;53.67;100780.78;4988529;28;20137;-82
2023/04/14 09:08:46;;;;;;;4.13;1.58;;;;;;;13.63;55.06;100779.16;5011214;28;20104;-82
2023/04/14 09:11:12;;;;;;;4.22;1.98;;;;;;;14.05;56.76;100773.66;5009188;28;20537;-83
2023/04/14 09:13:39;;;;;;;6.22;1.77;;;;;;;14.41;53.73;100772.25;4973193;28;20018;-82
2023/04/14 09:16:06;;;;;;;4.88;1.80;;;;;;;14.65;52.18;100771.09;4985771;28;20382;-82
2023/04/14 09:18:32;;;;;;;8.55;1.55;;;;;;;14.92;55.59;100771.31;4967193;28;20047;-83
2023/04/14 09:20:58;;;;;;;4.95;1.75;;;;;;;15.09;52.24;100772.47;4989517;28;20042;-82
2023/04/14 09:23:24;;;;;;;5.10;1.63;;;;;;;15.20;52.63;100775.09;4991443;28;20389;-82
2023/04/14 09:25:50;;;;;;;6.05;1.67;;;;;;;15.27;50.38;100761.66;4990593;28;20496;-82
2023/04/14 09:28:15;;;;;;;6.97;1.75;;;;;;;15.32;52.07;100768.44;4983419;28;20110;-82
2023/04/14 09:30:42;;;;;;;6.13;1.50;;;;;;;15.10;49.75;100762.38;4985269;28;20035;-82
2023/04/14 09:33:17;;;;;;;2.75;1.30;;;;;;;14.90;50.72;100759.59;4985889;28;20360;-82
2023/04/14 09:35:48;;;;;;;9.45;2.05;;;;;;;14.90;51.75;100759.59;4984726;28;20039;-81
2023/04/14 09:38:14;;;;;;;4.43;1.70;;;;;;;14.70;51.53;100753.22;4986246;28;20049;-82
2023/04/14 09:40:43;;;;;;;2.97;1.40;;;;;;;14.54;49.93;100751.00;4986010;28;20078;-82
2023/04/14 09:43:24;;;;;;;6.43;2.03;;;;;;;14.26;50.31;100748.97;4990971;28;20461;-82
2023/04/14 09:45:49;;;;;;;4.57;1.30;;;;;;;13.97;50.22;100751.56;4991261;28;20037;-83
2023/04/14 09:48:15;;;;;;;4.20;1.50;;;;;;;13.92;52.50;100735.56;4993396;28;20514;-83
2023/04/14 09:50:58;;;;;;;2.20;1.40;;;;;;;14.07;52.14;100752.50;4965708;28;20074;-83
2023/04/14 09:53:26;;;;;;;6.18;1.73;;;;;;;14.35;52.53;100737.22;4955770;28;20062;-83
2023/04/14 09:55:52;;;;;;;6.05;1.70;;;;;;;14.68;50.34;100740.66;4990225;28;20046;-83
2023/04/14 09:58:20;;;;;;;4.85;1.60;;;;;;;14.71;50.48;100738.50;5005889;28;20481;-82
2023/04/14 10:00:46;;;;;;;3.03;1.30;;;;;;;15.08;48.88;100740.59;5007878;28;20046;-82
2023/04/14 10:03:12;;;;;;;6.13;1.63;;;;;;;15.40;51.19;100734.84;5008304;28;20026;-82
2023/04/14 10:05:38;;;;;;;5.60;2.10;;;;;;;15.63;45.44;100731.78;5007111;28;20040;-82
2023/04/14 10:08:04;;;;;;;8.75;1.90;;;;;;;16.00;49.42;100729.16;5008530;28;20124;-83
2023/04/14 10:10:30;;;;;;;5.47;1.40;;;;;;;16.07;46.32;100727.50;4991399;28;20109;-82
2023/04/14 10:12:55;;;;;;;3.42;1.17;;;;;;;16.14;46.47;100728.66;4987840;28;20550;-83
2023/04/14 10:15:21;;;;;;;5.25;1.60;;;;;;;16.40;45.62;100720.59;4988574;28;20117;-82
2023/04/14 10:17:46;;;;;;;6.28;1.48;;;;;;;16.02;45.03;100716.97;5001406;28;20090;-83
2023/04/14 10:20:14;;;;;;;8.48;1.95;;;;;;;16.08;46.29;100718.25;4987561;28;20037;-83
2023/04/14 10:22:40;;;;;;;5.38;1.63;;;;;;;16.06;46.60;100698.34;4988367;28;20443;-83
2023/04/14 10:25:07;;;;;;;6.72;1.70;;;;;;;16.23;47.87;100707.69;5004305;28;20041;-82
2023/04/14 10:27:33;;;;;;;3.13;1.40;;;;;;;16.32;48.94;100704.88;4980392;28;20038;-82
2023/04/14 10:29:59;;;;;;;10.27;1.70;;;;;;;16.18;47.02;100709.97;4989626;28;20651;-82
2023/04/14 10:32:30;;;;;;;4.60;1.25;;;;;;;16.01;46.24;100700.69;4986977;28;20048;-82
2023/04/14 10:35:04;;;;;;;4.72;1.52;;;;;;;16.24;48.74;100698.41;4975609;28;20072;-83
2023/04/14 10:37:31;;;;;;;5.30;1.80;;;;;;;16.42;44.65;100698.47;4990627;28;20076;-83
2023/04/14 10:39:59;;;;;;;4.55;1.50;;;;;;;16.65;45.28;100699.78;5006819;28;20516;-82
2023/04/14 10:42:25;;;;;;;4.97;1.60;;;;;;;16.79;46.63;100695.69;4992948;28;20479;-82
2023/04/14 10:45:07;;;;;;;6.70;1.58;;;;;;;17.23;46.96;100693.03;4986328;28;20072;-84
2023/04/14 10:47:36;;;;;;;4.20;2.05;;;;;;;17.52;42.84;100690.00;5004192;28;20042;-83
2023/04/14 10:50:21;;;;;;;6.57;1.80;;;;;;;17.48;43.12;100686.69;4996922;28;20034;-82
2023/04/14 10:52:54;;;;;;;4.68;1.48;;;;;;;17.46;42.89;100686.00;4967285;28;20035;-82
2023/04/14 10:55:28;;;;;;;6.72;1.40;;;;;;;17.28;45.81;100687.91;4969942;28;20055;-82
2023/04/14 10:58:04;;;;;;;6.93;1.70;;;;;;;17.34;44.72;100690.03;5000385;28;20061;-81
2023/04/14 11:00:32;;;;;;;11.07;1.70;;;;;;;17.42;44.42;100676.34;5005485;28;20493;-82
2023/04/14 11:03:18;;;;;;;6.95;1.63;;;;;;;17.67;43.96;100671.00;5003693;28;20053;-82
2023/04/14 11:05:48;;;;;;;3.67;1.20;;;;;;;17.53;43.92;100665.09;5004684;28;20061;-82
2023/04/14 11:08:24;;;;;;;5.10;1.35;;;;;;;17.75;42.97;100677.47;5007908;28;20037;-83
2023/04/14 11:10:59;;;;;;;4.63;1.25;;;;;;;17.81;41.30;100670.44;4999779;28;20509;-83
2023/04/14 11:13:25;;;;;;;7.15;1.90;;;;;;;17.62;43.63;100674.25;4970759;28;20039;-83
2023/04/14 11:15:56;;;;;;;6.72;1.58;;;;;;;17.60;44.71;100676.31;4986099;28;20037;-83
2023/04/14 11:18:28;;;;;;;3.97;1.67;;;;;;;17.75;43.25;100666.47;4986568;28;20045;-82
2023/04/14 11:21:00;;;;;;;8.02;2.17;;;;;;;17.90;41.44;100666.72;4986780;28;20038;-83
2023/04/14 11:23:27;;;;;;;2.40;1.35;;;;;;;18.14;39.55;100666.03;4973976;28;20046;-83
2023/04/14 11:25:52;;;;;;;7.22;1.70;;;;;;;18.41;43.15;100658.53;4989985;28;20038;-82
2023/04/14 11:28:35;;;;;;;2.63;1.30;;;;;;;18.88;44.60;100652.50;5005544;28;20041;-83
2023/04/14 11:31:07;;;;;;;3.83;1.55;;;;;;;19.01;40.07;100650.09;4992088;28;20038;-82
2023/04/14 11:33:35;;;;;;;3.53;1.10;;;;;;;18.34;39.45;100650.94;5010511;28;20054;-83